createdAt,value
2023-03-12T00:01:54.557Z,99151.88
2023-03-12T00:03:57.267Z,99150.22
2023-03-12T00:06:09.782Z,99147.53
2023-03-12T00:08:13.646Z,99131.50
2023-03-12T00:10:16.319Z,99139.56
2023-03-12T00:12:19.053Z,99141.41
2023-03-12T00:14:21.625Z,99121.78
2023-03-12T00:16:25.133Z,99126.91
2023-03-12T00:18:28.075Z,99134.50
2023-03-12T00:20:30.596Z,99135.06
2023-03-12T00:22:34.349Z,99126.00
2023-03-12T00:24:36.987Z,99125.25
2023-03-12T00:26:39.786Z,99144.66
2023-03-12T00:28:42.784Z,99135.09
2023-03-12T00:30:45.445Z,99142.91
2023-03-12T00:32:48.181Z,99144.00
2023-03-12T00:34:55.885Z,99148.63
2023-03-12T00:36:58.577Z,99146.41
2023-03-12T00:39:02.305Z,99151.34
2023-03-12T00:41:05.120Z,99121.88
2023-03-12T00:43:07.777Z,99146.47
2023-03-12T00:45:10.944Z,99140.28
2023-03-12T00:47:13.974Z,99140.44
2023-03-12T00:49:16.872Z,99137.31
2023-03-12T00:51:19.835Z,99141.94
2023-03-12T00:53:22.501Z,99138.72
2023-03-12T00:55:25.149Z,99133.91
2023-03-12T00:57:27.854Z,99121.19
2023-03-12T00:59:30.722Z,99110.88
2023-03-12T01:01:33.328Z,99105.22
2023-03-12T01:03:36.021Z,99097.47
2023-03-12T01:05:40.931Z,99086.75
2023-03-12T01:07:43.716Z,99101.72
2023-03-12T01:09:46.321Z,99093.13
2023-03-12T01:11:48.939Z,99093.19
2023-03-12T01:13:51.597Z,99094.44
2023-03-12T01:15:54.116Z,99082.91
2023-03-12T01:17:56.714Z,99092.84
2023-03-12T01:19:59.362Z,99097.75
2023-03-12T01:22:02.364Z,99092.59
2023-03-12T01:24:05.171Z,99106.69
2023-03-12T01:26:07.773Z,99090.53
2023-03-12T01:28:10.628Z,99091.94
2023-03-12T01:30:13.705Z,99092.28
2023-03-12T01:32:17.388Z,99095.22
2023-03-12T01:34:20.228Z,99086.16
2023-03-12T01:36:27.341Z,99102.34
2023-03-12T01:38:29.972Z,99089.72
2023-03-12T01:40:35.621Z,99107.53
2023-03-12T01:42:38.344Z,99112.59
2023-03-12T01:45:02.400Z,99097.47
2023-03-12T01:47:06.292Z,99081.69
2023-03-12T01:49:20.424Z,99080.31
2023-03-12T01:51:27.508Z,99086.69
2023-03-12T01:53:31.112Z,99092.09
2023-03-12T01:55:33.741Z,99095.41
2023-03-12T01:57:53.129Z,99104.56
2023-03-12T02:00:04.668Z,99112.13
2023-03-12T02:02:08.668Z,99110.00
2023-03-12T02:04:13.288Z,99110.53
2023-03-12T02:06:18.418Z,99106.44
2023-03-12T02:08:23.745Z,99092.22
2023-03-12T02:10:26.856Z,99087.88
2023-03-12T02:12:29.499Z,99088.19
2023-03-12T02:14:32.688Z,99078.22
2023-03-12T02:16:35.563Z,99073.34
2023-03-12T02:18:38.304Z,99064.16
2023-03-12T02:20:46.624Z,99066.56
2023-03-12T02:23:03.395Z,99066.22
2023-03-12T02:25:45.462Z,99061.41
2023-03-12T02:27:48.635Z,99057.19
2023-03-12T02:29:51.385Z,99053.06
2023-03-12T02:31:57.728Z,99051.19
2023-03-12T02:34:00.874Z,99049.59
2023-03-12T02:36:03.630Z,99046.03
2023-03-12T02:38:26.119Z,99046.84
2023-03-12T02:40:39.779Z,99041.97
2023-03-12T02:42:42.487Z,99027.13
2023-03-12T02:44:45.189Z,99028.97
2023-03-12T02:46:50.954Z,99031.19
2023-03-12T02:48:54.438Z,99025.25
2023-03-12T02:50:57.075Z,99027.44
2023-03-12T02:52:59.714Z,99021.78
2023-03-12T02:55:02.911Z,99028.50
2023-03-12T02:57:05.562Z,99020.41
2023-03-12T02:59:09.471Z,99007.19
2023-03-12T03:01:12.075Z,98998.09
2023-03-12T03:03:14.835Z,99002.75
2023-03-12T03:05:17.726Z,98996.84
2023-03-12T03:07:20.342Z,99007.94
2023-03-12T03:09:23.408Z,99027.94
2023-03-12T03:11:26.474Z,99027.16
2023-03-12T03:13:30.356Z,99027.94
2023-03-12T03:15:33.044Z,99030.06
2023-03-12T03:17:35.727Z,99015.22
2023-03-12T03:19:38.327Z,99012.00
2023-03-12T03:21:41.048Z,98997.50
2023-03-12T03:23:48.244Z,98997.75
2023-03-12T03:25:52.932Z,98983.97
2023-03-12T03:27:55.685Z,98984.81
2023-03-12T03:29:58.403Z,98973.75
2023-03-12T03:32:01.045Z,98980.56
2023-03-12T03:34:03.963Z,98968.34
2023-03-12T03:36:08.472Z,98982.38
2023-03-12T03:38:11.042Z,98965.94
2023-03-12T03:40:13.877Z,98974.88
2023-03-12T03:42:16.488Z,98969.69
2023-03-12T03:44:19.507Z,98978.97
2023-03-12T03:46:22.270Z,98974.16
2023-03-12T03:48:25.574Z,98986.56
2023-03-12T03:50:28.257Z,98973.84
2023-03-12T03:52:32.237Z,98984.88
2023-03-12T03:54:34.861Z,98984.06
2023-03-12T03:56:37.826Z,98987.03
2023-03-12T03:58:40.525Z,98987.03
2023-03-12T04:00:45.720Z,98989.56
2023-03-12T04:02:48.369Z,98986.84
2023-03-12T04:04:51.111Z,98987.38
2023-03-12T04:06:53.771Z,98976.59
2023-03-12T04:08:57.695Z,98965.81
2023-03-12T04:11:00.307Z,98976.63
2023-03-12T04:13:02.910Z,98961.25
2023-03-12T04:15:06.509Z,98964.81
2023-03-12T04:17:09.644Z,98963.22
2023-03-12T04:19:12.509Z,98972.38
2023-03-12T04:21:15.706Z,98964.06
2023-03-12T04:23:18.325Z,98958.41
2023-03-12T04:25:21.107Z,98950.59
2023-03-12T04:27:23.716Z,98943.06
2023-03-12T04:29:27.428Z,98925.53
2023-03-12T04:31:30.301Z,98934.16
2023-03-12T04:33:36.615Z,98922.84
2023-03-12T04:35:39.342Z,98929.81
2023-03-12T04:37:42.016Z,98928.22
2023-03-12T04:39:45.615Z,98914.72
2023-03-12T04:41:48.450Z,98920.59
2023-03-12T04:43:51.072Z,98916.31
2023-03-12T04:45:53.825Z,98903.09
2023-03-12T04:47:56.551Z,98910.38
2023-03-12T04:49:59.601Z,98912.28
2023-03-12T04:52:02.225Z,98913.63
2023-03-12T04:54:05.018Z,98905.28
2023-03-12T04:56:07.883Z,98899.94
2023-03-12T04:58:10.861Z,98889.69
2023-03-12T05:00:14.293Z,98900.53
2023-03-12T05:02:16.943Z,98892.72
2023-03-12T05:04:19.621Z,98896.50
2023-03-12T05:06:23.812Z,98886.78
2023-03-12T05:08:26.430Z,98872.22
2023-03-12T05:10:29.153Z,98900.34
2023-03-12T05:12:31.779Z,98885.22
2023-03-12T05:14:34.333Z,98890.88
2023-03-12T05:16:37.153Z,98891.97
2023-03-12T05:18:40.264Z,98892.78
2023-03-12T05:20:43.554Z,98887.69
2023-03-12T05:22:46.285Z,98883.88
2023-03-12T05:24:48.911Z,98885.00
2023-03-12T05:26:51.840Z,98894.16
2023-03-12T05:28:54.884Z,98874.97
2023-03-12T05:30:59.536Z,98863.91
2023-03-12T05:33:02.225Z,98873.09
2023-03-12T05:35:05.046Z,98874.19
2023-03-12T05:37:07.746Z,98866.34
2023-03-12T05:39:10.310Z,98862.56
2023-03-12T05:41:25.307Z,98873.38
2023-03-12T05:43:28.921Z,98875.00
2023-03-12T05:45:33.213Z,98860.97
2023-03-12T05:47:36.077Z,98869.06
2023-03-12T05:49:38.685Z,98864.75
2023-03-12T05:51:42.054Z,98860.41
2023-03-12T05:53:44.810Z,98855.84
2023-03-12T05:55:47.498Z,98853.97
2023-03-12T05:57:50.246Z,98858.25
2023-03-12T05:59:52.853Z,98839.63
2023-03-12T06:01:56.180Z,98846.34
2023-03-12T06:03:58.917Z,98836.59
2023-03-12T06:06:01.515Z,98818.75
2023-03-12T06:08:05.724Z,98802.25
2023-03-12T06:10:09.090Z,98812.22
2023-03-12T06:12:11.770Z,98807.88
2023-03-12T06:14:14.914Z,98783.22
2023-03-12T06:16:25.171Z,98800.78
2023-03-12T06:18:27.801Z,98801.63
2023-03-12T06:20:30.640Z,98817.00
2023-03-12T06:22:33.287Z,98825.13
2023-03-12T06:24:37.485Z,98809.53
2023-03-12T06:26:40.754Z,98811.41
2023-03-12T06:28:43.502Z,98798.94
2023-03-12T06:30:46.093Z,98807.34
2023-03-12T06:32:48.732Z,98825.22
2023-03-12T06:34:51.368Z,98815.50
2023-03-12T06:36:53.970Z,98801.97
2023-03-12T06:38:57.301Z,98804.72
2023-03-12T06:41:05.781Z,98794.13
2023-03-12T06:43:12.410Z,98786.31
2023-03-12T06:45:15.070Z,98789.28
2023-03-12T06:47:18.105Z,98781.44
2023-03-12T06:49:20.720Z,98789.53
2023-03-12T06:51:23.355Z,98785.19
2023-03-12T06:53:26.148Z,98765.69
2023-03-12T06:55:28.750Z,98768.09
2023-03-12T06:57:31.399Z,98768.31
2023-03-12T06:59:33.929Z,98775.53
2023-03-12T07:01:36.857Z,98761.88
2023-03-12T07:03:39.499Z,98768.56
2023-03-12T07:05:45.975Z,98772.28
2023-03-12T07:07:48.606Z,98789.31
2023-03-12T07:09:51.162Z,98750.88
2023-03-12T07:11:53.706Z,98770.81
2023-03-12T07:13:56.394Z,98746.66
2023-03-12T07:15:59.015Z,98743.00
2023-03-12T07:18:04.715Z,98747.94
2023-03-12T07:20:07.790Z,98753.47
2023-03-12T07:22:10.365Z,98762.06
2023-03-12T07:24:13.029Z,98745.91
2023-03-12T07:26:16.256Z,98737.72
2023-03-12T07:28:19.959Z,98732.44
2023-03-12T07:30:23.018Z,98726.47
2023-03-12T07:32:25.762Z,98722.84
2023-03-12T07:34:28.626Z,98726.19
2023-03-12T07:36:31.388Z,98738.97
2023-03-12T07:38:34.457Z,98725.19
2023-03-12T07:40:37.339Z,98728.69
2023-03-12T07:42:39.996Z,98730.75
2023-03-12T07:44:42.655Z,98719.84
2023-03-12T07:46:45.798Z,98713.81
2023-03-12T07:48:48.887Z,98688.78
2023-03-12T07:50:52.178Z,98705.81
2023-03-12T07:52:54.930Z,98702.75
2023-03-12T07:54:58.813Z,98717.47
2023-03-12T07:57:01.627Z,98687.47
2023-03-12T07:59:05.457Z,98686.16
2023-03-12T08:01:08.229Z,98678.00
2023-03-12T08:03:11.188Z,98674.19
2023-03-12T08:05:13.995Z,98689.81
2023-03-12T08:07:16.805Z,98684.53
2023-03-12T08:09:19.534Z,98691.00
2023-03-12T08:11:22.281Z,98694.06
2023-03-12T08:13:25.911Z,98697.59
2023-03-12T08:15:28.602Z,98672.84
2023-03-12T08:17:31.390Z,98678.84
2023-03-12T08:19:34.446Z,98672.88
2023-03-12T08:21:37.384Z,98670.16
2023-03-12T08:23:40.107Z,98656.22
2023-03-12T08:25:46.379Z,98655.03
2023-03-12T08:27:49.233Z,98650.63
2023-03-12T08:29:51.949Z,98651.88
2023-03-12T08:32:04.646Z,98652.59
2023-03-12T08:34:07.965Z,98641.75
2023-03-12T08:36:11.098Z,98633.75
2023-03-12T08:38:13.775Z,98641.38
2023-03-12T08:40:16.629Z,98636.97
2023-03-12T08:42:19.179Z,98628.50
2023-03-12T08:44:25.084Z,98621.19
2023-03-12T08:46:27.832Z,98638.06
2023-03-12T08:48:32.804Z,98629.16
2023-03-12T08:50:35.510Z,98616.00
2023-03-12T08:52:38.372Z,98623.91
2023-03-12T08:54:41.286Z,98619.97
2023-03-12T08:56:44.597Z,98622.59
2023-03-12T08:58:47.894Z,98627.88
2023-03-12T09:00:50.735Z,98619.97
2023-03-12T09:02:54.474Z,98612.38
2023-03-12T09:04:57.879Z,98616.28
2023-03-12T09:07:01.788Z,98614.38
2023-03-12T09:09:09.213Z,98601.63
2023-03-12T09:11:13.734Z,98604.56
2023-03-12T09:13:16.415Z,98581.94
2023-03-12T09:15:19.105Z,98577.22
2023-03-12T09:17:21.847Z,98569.88
2023-03-12T09:19:24.440Z,98570.09
2023-03-12T09:21:27.454Z,98562.44
2023-03-12T09:23:30.361Z,98570.19
2023-03-12T09:25:33.497Z,98556.81
2023-03-12T09:27:44.211Z,98559.13
2023-03-12T09:29:59.357Z,98550.75
2023-03-12T09:32:05.862Z,98554.78
2023-03-12T09:34:08.921Z,98545.63
2023-03-12T09:36:11.918Z,98557.63
2023-03-12T09:38:15.754Z,98545.34
2023-03-12T09:40:25.618Z,98545.94
2023-03-12T09:42:58.913Z,98545.03
2023-03-12T09:45:08.268Z,98540.56
2023-03-12T09:47:35.156Z,98541.50
2023-03-12T09:49:50.728Z,98545.84
2023-03-12T09:51:58.749Z,98539.91
2023-03-12T09:54:08.377Z,98534.22
2023-03-12T09:56:36.768Z,98512.41
2023-03-12T09:58:59.884Z,98523.19
2023-03-12T10:04:37.810Z,98515.72
2023-03-12T10:07:23.340Z,98512.22
2023-03-12T10:09:51.045Z,98503.88
2023-03-12T10:12:14.093Z,98508.00
2023-03-12T10:14:49.847Z,98504.16
2023-03-12T10:17:11.965Z,98511.69
2023-03-12T10:19:37.692Z,98491.25
2023-03-12T10:21:59.119Z,98489.75
2023-03-12T10:24:38.603Z,98495.88
2023-03-12T10:26:59.069Z,98488.91
2023-03-12T10:29:23.515Z,98473.53
2023-03-12T10:31:37.608Z,98486.19
2023-03-12T10:33:50.496Z,98477.16
2023-03-12T10:35:54.689Z,98473.31
2023-03-12T10:38:04.445Z,98459.63
2023-03-12T10:40:16.416Z,98445.78
2023-03-12T10:42:25.096Z,98425.13
2023-03-12T10:44:31.029Z,98457.13
2023-03-12T10:46:38.503Z,98442.91
2023-03-12T10:48:44.521Z,98441.69
2023-03-12T10:51:10.041Z,98437.19
2023-03-12T10:53:30.208Z,98442.81
2023-03-12T10:55:36.061Z,98443.25
2023-03-12T10:57:44.313Z,98436.06
2023-03-12T10:59:51.888Z,98435.44
2023-03-12T11:01:54.615Z,98440.41
2023-03-12T11:04:33.067Z,98437.13
2023-03-12T11:06:35.717Z,98434.59
2023-03-12T11:08:38.465Z,98430.38
2023-03-12T11:10:45.995Z,98430.56
2023-03-12T11:12:55.614Z,98424.75
2023-03-12T11:14:59.241Z,98410.28
2023-03-12T11:17:21.353Z,98424.50
2023-03-12T11:19:31.478Z,98423.31
2023-03-12T11:21:40.502Z,98412.50
2023-03-12T11:24:04.887Z,98405.13
2023-03-12T11:26:20.336Z,98403.41
2023-03-12T11:28:26.305Z,98411.78
2023-03-12T11:30:40.991Z,98397.19
2023-03-12T11:32:49.604Z,98387.88
2023-03-12T11:34:53.312Z,98386.78
2023-03-12T11:37:26.308Z,98380.44
2023-03-12T11:39:37.918Z,98373.25
2023-03-12T11:41:58.896Z,98367.03
2023-03-12T11:44:16.578Z,98371.16
2023-03-12T11:46:31.405Z,98364.72
2023-03-12T11:49:07.383Z,98359.59
2023-03-12T11:51:25.304Z,98351.19
2023-03-12T11:54:05.160Z,98347.34
2023-03-12T11:56:16.802Z,98336.59
2023-03-12T11:58:42.687Z,98319.56
2023-03-12T12:00:57.883Z,98315.84
2023-03-12T12:03:11.213Z,98318.69
2023-03-12T12:05:36.858Z,98313.88
2023-03-12T12:07:48.233Z,98311.47
2023-03-12T12:10:09.770Z,98298.50
2023-03-12T12:12:24.273Z,98275.13
2023-03-12T12:15:00.849Z,98298.78
2023-03-12T12:17:35.608Z,98282.53
2023-03-12T12:20:17.261Z,98268.47
2023-03-12T12:22:39.398Z,98257.59
2023-03-12T12:25:24.209Z,98272.38
2023-03-12T12:27:30.266Z,98255.06
2023-03-12T12:29:54.422Z,98264.94
2023-03-12T12:31:59.783Z,98252.63
2023-03-12T12:34:22.522Z,98281.00
2023-03-12T12:36:27.730Z,98262.66
2023-03-12T12:38:34.958Z,98275.63
2023-03-12T12:40:53.510Z,98264.72
2023-03-12T12:43:02.631Z,98249.50
2023-03-12T12:45:07.126Z,98266.66
2023-03-12T12:47:17.566Z,98253.56
2023-03-12T12:49:26.319Z,98261.16
2023-03-12T12:51:37.051Z,98255.72
2023-03-12T12:54:13.017Z,98234.53
2023-03-12T12:56:47.682Z,98242.78
2023-03-12T12:58:59.064Z,98244.91
2023-03-12T13:01:02.745Z,98245.84
2023-03-12T13:03:05.617Z,98231.75
2023-03-12T13:05:36.995Z,98242.53
2023-03-12T13:07:39.677Z,98219.38
2023-03-12T13:09:47.752Z,98242.06
2023-03-12T13:11:51.776Z,98220.09
2023-03-12T13:14:03.881Z,98236.75
2023-03-12T13:16:32.877Z,98227.09
2023-03-12T13:18:37.870Z,98227.66
2023-03-12T13:21:11.429Z,98230.72
2023-03-12T13:23:31.935Z,98237.88
2023-03-12T13:25:40.382Z,98225.66
2023-03-12T13:27:46.075Z,98224.13
2023-03-12T13:29:55.408Z,98194.47
2023-03-12T13:31:58.406Z,98200.34
2023-03-12T13:34:21.222Z,98217.28
2023-03-12T13:36:28.433Z,98196.75
2023-03-12T13:38:37.132Z,98200.09
2023-03-12T13:41:03.236Z,98213.19
2023-03-12T13:43:12.878Z,98200.41
2023-03-12T13:45:28.446Z,98204.53
2023-03-12T13:47:37.665Z,98208.56
2023-03-12T13:49:54.209Z,98198.63
2023-03-12T13:52:11.445Z,98192.09
2023-03-12T13:54:19.444Z,98177.38
2023-03-12T13:56:28.619Z,98173.16
2023-03-12T13:58:31.994Z,98183.38
2023-03-12T14:00:59.920Z,98167.16
2023-03-12T14:03:30.097Z,98183.25
2023-03-12T14:05:45.282Z,98178.31
2023-03-12T14:08:10.932Z,98190.72
2023-03-12T14:10:41.280Z,98181.66
2023-03-12T14:13:02.512Z,98178.31
2023-03-12T14:15:22.139Z,98174.16
2023-03-12T14:17:27.541Z,98178.50
2023-03-12T14:19:33.516Z,98158.78
2023-03-12T14:21:40.211Z,98181.44
2023-03-12T14:23:54.431Z,98173.13
2023-03-12T14:26:03.502Z,98169.00
2023-03-12T14:28:24.475Z,98185.41
2023-03-12T14:30:53.180Z,98173.13
2023-03-12T14:33:01.371Z,98169.78
2023-03-12T14:35:50.251Z,98174.16
2023-03-12T14:38:05.642Z,98173.44
2023-03-12T14:40:25.229Z,98171.53
2023-03-12T14:42:31.722Z,98186.41
2023-03-12T14:44:37.614Z,98170.09
2023-03-12T14:46:47.465Z,98179.03
2023-03-12T14:48:52.272Z,98184.34
2023-03-12T14:50:57.171Z,98179.72
2023-03-12T14:53:19.934Z,98184.47
2023-03-12T14:55:24.981Z,98180.16
2023-03-12T14:57:28.120Z,98177.44
2023-03-12T14:59:39.264Z,98182.81
2023-03-12T15:01:41.981Z,98188.13
2023-03-12T15:03:48.234Z,98177.75
2023-03-12T15:05:52.626Z,98182.06
2023-03-12T15:08:02.903Z,98185.56
2023-03-12T15:10:20.778Z,98176.66
2023-03-12T15:12:27.163Z,98182.75
2023-03-12T15:14:35.293Z,98172.88
2023-03-12T15:16:38.583Z,98176.38
2023-03-12T15:18:41.612Z,98172.56
2023-03-12T15:20:44.973Z,98162.16
2023-03-12T15:22:48.023Z,98160.06
2023-03-12T15:24:51.156Z,98160.34
2023-03-12T15:26:53.735Z,98166.91
2023-03-12T15:29:02.311Z,98169.50
2023-03-12T15:31:12.680Z,98159.59
2023-03-12T15:33:15.266Z,98167.97
2023-03-12T15:35:26.201Z,98170.88
2023-03-12T15:37:32.695Z,98164.00
2023-03-12T15:39:38.218Z,98159.03
2023-03-12T15:41:49.604Z,98149.09
2023-03-12T15:43:56.750Z,98161.75
2023-03-12T15:46:05.599Z,98156.03
2023-03-12T15:48:17.420Z,98170.47
2023-03-12T15:50:25.987Z,98155.22
2023-03-12T15:52:34.293Z,98173.19
2023-03-12T15:54:40.714Z,98174.47
2023-03-12T15:56:44.066Z,98156.53
2023-03-12T15:58:47.280Z,98137.81
2023-03-12T16:00:50.238Z,98143.41
2023-03-12T16:03:06.320Z,98144.22
2023-03-12T16:05:09.142Z,98142.47
2023-03-12T16:07:12.566Z,98134.00
2023-03-12T16:09:35.580Z,98139.44
2023-03-12T16:11:38.497Z,98140.06
2023-03-12T16:13:42.208Z,98136.69
2023-03-12T16:15:47.449Z,98116.81
2023-03-12T16:17:50.484Z,98107.69
2023-03-12T16:19:53.157Z,98121.16
2023-03-12T16:21:56.001Z,98096.34
2023-03-12T16:23:58.693Z,98104.97
2023-03-12T16:26:03.611Z,98099.22
2023-03-12T16:28:06.837Z,98079.22
2023-03-12T16:30:26.080Z,98087.69
2023-03-12T16:32:28.839Z,98083.34
2023-03-12T16:34:32.003Z,98066.06
2023-03-12T16:36:34.683Z,98078.41
2023-03-12T16:38:37.317Z,98071.69
2023-03-12T16:40:45.085Z,98055.53
2023-03-12T16:42:51.666Z,98062.75
2023-03-12T16:44:54.634Z,98057.44
2023-03-12T16:46:57.835Z,98041.13
2023-03-12T16:49:00.903Z,98021.13
2023-03-12T16:51:03.969Z,98026.91
2023-03-12T16:53:06.552Z,97990.28
2023-03-12T16:55:09.765Z,98019.53
2023-03-12T16:57:33.532Z,98024.34
2023-03-12T16:59:38.300Z,97999.06
2023-03-12T17:01:41.035Z,97975.09
2023-03-12T17:03:46.651Z,97978.44
2023-03-12T17:05:49.372Z,97982.16
2023-03-12T17:07:52.128Z,97999.56
2023-03-12T17:09:55.309Z,97991.59
2023-03-12T17:11:57.951Z,97968.25
2023-03-12T17:14:03.282Z,97973.03
2023-03-12T17:16:06.121Z,97936.72
2023-03-12T17:18:11.796Z,97979.75
2023-03-12T17:20:15.491Z,97995.25
2023-03-12T17:22:19.697Z,97956.72
2023-03-12T17:24:28.111Z,97960.06
2023-03-12T17:26:30.882Z,97966.78
2023-03-12T17:28:33.918Z,97960.53
2023-03-12T17:30:37.706Z,97954.78
2023-03-12T17:32:40.473Z,97949.19
2023-03-12T17:34:43.147Z,97936.06
2023-03-12T17:36:45.903Z,97943.56
2023-03-12T17:38:50.714Z,97949.50
2023-03-12T17:40:53.764Z,97937.66
2023-03-12T17:42:56.551Z,97928.03
2023-03-12T17:44:59.552Z,97930.75
2023-03-12T17:47:02.393Z,97917.81
2023-03-12T17:49:05.068Z,97944.84
2023-03-12T17:51:10.220Z,97907.88
2023-03-12T17:53:13.673Z,97924.53
2023-03-12T17:55:16.384Z,97935.09
2023-03-12T17:57:19.086Z,97900.03
2023-03-12T17:59:21.924Z,97930.41
2023-03-12T18:01:24.583Z,97925.59
2023-03-12T18:03:27.555Z,97909.94
2023-03-12T18:05:30.300Z,97905.59
2023-03-12T18:07:33.261Z,97910.56
2023-03-12T18:09:35.901Z,97931.19
2023-03-12T18:11:38.846Z,97910.53
2023-03-12T18:13:41.396Z,97912.63
2023-03-12T18:15:52.138Z,97900.28
2023-03-12T18:17:56.808Z,97899.66
2023-03-12T18:19:59.500Z,97905.59
2023-03-12T18:22:02.137Z,97895.50
2023-03-12T18:24:14.211Z,97904.59
2023-03-12T18:26:17.202Z,97898.22
2023-03-12T18:28:21.122Z,97894.69
2023-03-12T18:30:23.869Z,97908.31
2023-03-12T18:32:26.659Z,97903.16
2023-03-12T18:34:29.231Z,97879.47
2023-03-12T18:36:31.936Z,97906.97
2023-03-12T18:38:35.465Z,97903.19
2023-03-12T18:40:38.221Z,97916.13
2023-03-12T18:42:44.603Z,97919.03
2023-03-12T18:44:47.282Z,97913.09
2023-03-12T18:46:51.943Z,97906.88
2023-03-12T18:48:54.673Z,97886.53
2023-03-12T18:50:57.508Z,97903.16
2023-03-12T18:53:00.302Z,97894.31
2023-03-12T18:55:04.501Z,97897.84
2023-03-12T18:57:07.233Z,97896.91
2023-03-12T18:59:14.684Z,97906.34
2023-03-12T19:01:17.427Z,97888.88
2023-03-12T19:03:20.524Z,97897.34
2023-03-12T19:05:23.561Z,97895.91
2023-03-12T19:07:26.227Z,97870.75
2023-03-12T19:09:28.831Z,97899.25
2023-03-12T19:11:31.634Z,97889.81
2023-03-12T19:13:34.570Z,97892.66
2023-03-12T19:15:39.398Z,97894.72
2023-03-12T19:17:42.051Z,97894.41
2023-03-12T19:19:44.678Z,97857.44
2023-03-12T19:21:48.205Z,97897.28
2023-03-12T19:23:50.945Z,97880.47
2023-03-12T19:25:53.645Z,97890.72
2023-03-12T19:27:56.380Z,97885.88
2023-03-12T19:29:59.036Z,97888.28
2023-03-12T19:32:01.944Z,97881.41
2023-03-12T19:34:04.629Z,97890.69
2023-03-12T19:36:07.923Z,97869.53
2023-03-12T19:38:10.546Z,97886.84
2023-03-12T19:40:13.534Z,97879.63
2023-03-12T19:42:16.202Z,97869.53
2023-03-12T19:44:18.763Z,97870.66
2023-03-12T19:46:21.452Z,97884.09
2023-03-12T19:48:27.052Z,97869.00
2023-03-12T19:50:29.750Z,97879.91
2023-03-12T19:52:32.336Z,97881.53
2023-03-12T19:54:34.935Z,97874.47
2023-03-12T19:56:37.525Z,97889.53
2023-03-12T19:58:40.213Z,97870.19
2023-03-12T20:00:43.655Z,97865.69
2023-03-12T20:02:46.919Z,97866.78
2023-03-12T20:04:49.603Z,97872.53
2023-03-12T20:06:52.217Z,97876.88
2023-03-12T20:08:54.863Z,97866.28
2023-03-12T20:11:09.928Z,97857.78
2023-03-12T20:13:13.828Z,97845.28
2023-03-12T20:15:16.372Z,97837.78
2023-03-12T20:17:19.028Z,97842.13
2023-03-12T20:19:21.695Z,97861.78
2023-03-12T20:21:24.329Z,97841.44
2023-03-12T20:23:26.926Z,97849.94
2023-03-12T20:25:29.474Z,97848.94
2023-03-12T20:27:34.339Z,97854.88
2023-03-12T20:29:36.974Z,97857.91
2023-03-12T20:31:42.819Z,97844.78
2023-03-12T20:33:45.770Z,97853.63
2023-03-12T20:35:50.295Z,97838.41
2023-03-12T20:37:53.165Z,97833.78
2023-03-12T20:39:55.737Z,97846.63
2023-03-12T20:41:58.343Z,97836.91
2023-03-12T20:44:01.118Z,97842.47
2023-03-12T20:46:03.937Z,97848.44
2023-03-12T20:48:06.837Z,97845.41
2023-03-12T20:50:10.845Z,97844.63
2023-03-12T20:52:13.434Z,97842.84
2023-03-12T20:54:17.760Z,97830.53
2023-03-12T20:56:20.988Z,97826.72
2023-03-12T20:58:24.729Z,97824.59
2023-03-12T21:00:30.257Z,97835.28
2023-03-12T21:02:35.353Z,97823.78
2023-03-12T21:04:38.001Z,97837.41
2023-03-12T21:06:40.831Z,97834.88
2023-03-12T21:08:45.460Z,97832.16
2023-03-12T21:10:52.124Z,97839.06
2023-03-12T21:12:56.382Z,97833.63
2023-03-12T21:15:09.369Z,97827.53
2023-03-12T21:17:16.950Z,97823.53
2023-03-12T21:19:21.711Z,97821.25
2023-03-12T21:21:25.541Z,97821.59
2023-03-12T21:23:32.323Z,97818.53
2023-03-12T21:25:38.938Z,97831.38
2023-03-12T21:27:51.169Z,97814.28
2023-03-12T21:29:56.519Z,97807.84
2023-03-12T21:31:59.640Z,97817.13
2023-03-12T21:34:02.619Z,97835.69
2023-03-12T21:36:10.282Z,97826.28
2023-03-12T21:38:13.727Z,97814.59
2023-03-12T21:40:17.252Z,97809.13
2023-03-12T21:42:21.405Z,97826.75
2023-03-12T21:44:24.149Z,97825.31
2023-03-12T21:46:28.134Z,97812.69
2023-03-12T21:48:30.755Z,97829.19
2023-03-12T21:50:33.417Z,97825.19
2023-03-12T21:52:42.901Z,97812.88
2023-03-12T21:54:46.000Z,97817.69
2023-03-12T21:56:48.656Z,97822.00
2023-03-12T21:58:51.216Z,97825.19
2023-03-12T22:01:03.611Z,97829.38
2023-03-12T22:03:06.306Z,97836.06
2023-03-12T22:05:09.649Z,97826.44
2023-03-12T22:07:12.386Z,97835.41
2023-03-12T22:09:15.353Z,97833.03
2023-03-12T22:11:18.304Z,97837.81
2023-03-12T22:13:21.176Z,97832.22
2023-03-12T22:15:24.111Z,97828.88
2023-03-12T22:17:27.867Z,97826.97
2023-03-12T22:19:30.614Z,97829.38
2023-03-12T22:21:33.602Z,97821.38
2023-03-12T22:23:36.647Z,97824.09
2023-03-12T22:25:39.573Z,97824.56
2023-03-12T22:27:42.259Z,97822.31
2023-03-12T22:29:45.137Z,97819.59
2023-03-12T22:31:48.107Z,97815.31
2023-03-12T22:33:51.153Z,97818.81
2023-03-12T22:35:54.585Z,97812.44
2023-03-12T22:37:57.265Z,97818.53
2023-03-12T22:40:01.699Z,97820.63
2023-03-12T22:42:04.514Z,97819.84
2023-03-12T22:44:09.173Z,97829.94
2023-03-12T22:46:12.856Z,97813.13
2023-03-12T22:48:15.550Z,97810.41
2023-03-12T22:50:18.292Z,97816.66
2023-03-12T22:52:20.995Z,97794.28
2023-03-12T22:54:23.647Z,97815.38
2023-03-12T22:56:26.782Z,97807.88
2023-03-12T22:58:29.643Z,97791.22
2023-03-12T23:00:32.223Z,97798.25
2023-03-12T23:02:35.506Z,97807.34
2023-03-12T23:04:38.142Z,97797.59
2023-03-12T23:06:40.880Z,97783.84
2023-03-12T23:08:45.666Z,97790.53
2023-03-12T23:11:01.259Z,97788.66
2023-03-12T23:13:03.971Z,97800.31
2023-03-12T23:15:07.481Z,97797.91
2023-03-12T23:17:10.470Z,97794.09
2023-03-12T23:19:13.396Z,97788.66
2023-03-12T23:21:21.273Z,97804.50
2023-03-12T23:23:24.243Z,97791.38
2023-03-12T23:25:27.118Z,97789.44
2023-03-12T23:27:29.912Z,97789.28
2023-03-12T23:29:34.132Z,97791.88
2023-03-12T23:31:36.878Z,97785.63
2023-03-12T23:33:39.956Z,97771.56
2023-03-12T23:35:42.936Z,97775.38
2023-03-12T23:37:49.480Z,97777.00
2023-03-12T23:39:55.025Z,97766.13
2023-03-12T23:41:58.106Z,97778.91
2023-03-12T23:44:00.759Z,97774.09
2023-03-12T23:46:05.191Z,97773.63
2023-03-12T23:48:08.210Z,97775.09
2023-03-12T23:50:11.687Z,97782.28
2023-03-12T23:52:14.318Z,97781.47
2023-03-12T23:54:16.928Z,97771.25
2023-03-12T23:56:22.515Z,97776.88
2023-03-12T23:58:25.961Z,97768.56
